Pagrindinis puslapis
METAR-TAF:

METAR-TAF

Oro uostai :

Černivciai, Ukraina

platuma: 48-15-36N, ilguma: 025-58-54E, Aukštis: 252 m

Dabartinis oras

Ataskaita buvo paskelbta 38 minutes, ne 19:00 UTC
Vėjas 6 kt iš Rytų
Temperatūra 2°C
Drėgmė 80%
Slėgis 1024 hPa
Matomumas 10 km arba daugiau
nėra debesų žemiau 1500 m ir nėra kamuolinių lietaus debesų

METAR: UKLN 161900Z 10003MPS CAVOK 02/M01 Q1024 R15/09//70 NOSIG

Laikas: 21:38 (19:38 UTC)

Prognozė

Ataskaita buvo paskelbta 2 valandos ir 28 minutes, ne 17:10 UTC
Prognozė galioja nuo 16 metu 18 UTC su 17 metu 03 UTC
Vėjas 8 kt iš Rytų/Pietryčių
Matomumas 10 km arba daugiau
Išsisklaidę debesys ne aukštis 4000 ft
Laikinai
nuo 16 metu 19 UTC su 17 metu 03 UTC
Matomumas: 2100 m
rūkana

TAF: UKLN 161710Z 1618/1703 11004MPS 9999 SCT040 TX02/1618Z TNM00/1703Z TEMPO 1619/1703 2100 BR

Orai ataskaitas ir orų prognozės (METAR, TAF).

turimą stotys yra geltonos ir raudonos taškus žemėlapyje.

Perkelti pele per norėdami pamatyti stoties vardą.

Tada spustelėkite, norėdami matyti oro stebėjimo ir prognozės.

Norėdami pakeisti žemėlapį: spustelėkite ant žalios mygtukų su juodo kryžiaus žemyn,; žalią mygtuką su brūkšneliu, jei norite nutolinti; arba žalių rodyklių gretimoms žemėlapius.


METAR-TAF: